KSVN/SVN METAR and TAF weather

Enter ICAO airport designator
Station Type Date Time Source
KSVN METAR 2021/05/15 21:56 UTC NOAA

KSVN 152156Z AUTO 13007KT 10SM CLR 24/09 A3018 RMK AO2 SLP223 T02370089 $


Station Type Date Time Source
KSVN Decoded METAR 2021/05/15 21:56 UTC NOAA

Hunter U. S. Army Airfield , GA, United States (KSVN) 32-01N 081-09W
May 15, 2021 - 05:56 PM EDT / 2021.05.15 2156 UTC
Wind: from the SE (130 degrees) at 8 MPH (7 KT):0
Visibility: 10 mile(s):0
Sky conditions: clear
Temperature: 74.7 F (23.7 C)
Dew Point: 48.0 F (8.9 C)
Relative Humidity: 38%
Pressure (altimeter): 30.18 in. Hg (1022 hPa)
ob: KSVN 152156Z AUTO 13007KT 10SM CLR 24/09 A3018 RMK AO2 SLP223 T02370089
cycle: 22

Station Type Date Time Source
KSVN TAF 2021/05/15 20:31 UTC NOAA

TAF KSVN 152000Z 1520/1702 12010G15KT 9999 FEW050 QNH3017INS
BECMG 1523/1524 09006KT 9999 SKC QNH3022INS
BECMG 1614/1615 12012G18KT 9999 FEW150 QNH3020INS TX26/1520Z TN10/1612Z

Example: see airport list